createdAt,value
2023-05-16T04:52:42.927Z,25.48
2023-05-16T04:55:46.326Z,23.95
2023-05-16T04:58:49.429Z,23.60
2023-05-16T05:01:52.491Z,28.73
2023-05-16T05:04:55.923Z,28.55
2023-05-16T05:08:00.853Z,24.05
2023-05-16T05:11:04.019Z,25.25
2023-05-16T05:14:07.149Z,24.20
2023-05-16T05:17:10.330Z,21.63
2023-05-16T05:20:14.673Z,20.15
2023-05-16T05:23:20.052Z,20.65
2023-05-16T05:26:23.350Z,18.42
2023-05-16T05:29:26.692Z,16.48
2023-05-16T05:32:41.316Z,17.67
2023-05-16T05:36:00.199Z,20.75
2023-05-16T05:39:07.747Z,18.05
2023-05-16T05:42:14.442Z,21.13
2023-05-16T05:45:18.003Z,18.65
2023-05-16T05:48:50.387Z,18.30
2023-05-16T05:51:54.598Z,19.80
2023-05-16T05:55:05.043Z,22.20
2023-05-16T05:58:10.840Z,19.15
2023-05-16T06:01:14.020Z,19.65
2023-05-16T06:04:20.511Z,15.13
2023-05-16T06:07:23.712Z,19.85
2023-05-16T06:10:29.345Z,18.83
2023-05-16T06:13:42.137Z,18.00
2023-05-16T06:16:50.075Z,17.58
2023-05-16T06:19:54.932Z,16.27
2023-05-16T06:22:59.607Z,18.15
2023-05-16T06:26:04.613Z,19.83
2023-05-16T06:29:14.497Z,17.65
2023-05-16T06:32:20.216Z,20.98
2023-05-16T06:35:24.955Z,18.23
2023-05-16T06:38:28.518Z,16.38
2023-05-16T06:41:33.088Z,16.70
2023-05-16T06:44:36.154Z,16.02
2023-05-16T06:47:39.319Z,16.15
2023-05-16T06:50:42.588Z,15.20
2023-05-16T06:53:46.462Z,13.57
2023-05-16T06:56:51.178Z,15.00
2023-05-16T06:59:55.952Z,17.25
2023-05-16T07:03:02.197Z,16.13
2023-05-16T07:06:11.594Z,18.17
2023-05-16T07:09:14.659Z,16.52
2023-05-16T07:13:12.094Z,16.55
2023-05-16T07:16:16.522Z,17.88
2023-05-16T07:19:19.783Z,14.75
2023-05-16T07:23:12.978Z,16.47
2023-05-16T07:26:32.819Z,17.20
2023-05-16T07:33:54.163Z,15.63
2023-05-16T07:37:52.411Z,15.02
2023-05-16T07:41:02.002Z,16.57
2023-05-16T07:44:11.690Z,16.50
2023-05-16T07:47:16.457Z,14.23
2023-05-16T07:50:22.229Z,14.27
2023-05-16T07:53:25.453Z,15.43
2023-05-16T07:56:34.980Z,16.10
2023-05-16T08:00:32.435Z,14.05
2023-05-16T08:03:39.340Z,13.18
2023-05-16T08:06:42.836Z,14.20
2023-05-16T08:09:52.313Z,18.00
2023-05-16T08:12:58.920Z,11.53
2023-05-16T08:16:02.116Z,12.55
2023-05-16T08:19:07.403Z,15.68
2023-05-16T08:22:13.510Z,14.32
2023-05-16T08:25:16.761Z,14.52
2023-05-16T08:28:19.926Z,14.43
2023-05-16T08:31:25.521Z,13.27
2023-05-16T08:34:32.025Z,12.70
2023-05-16T08:37:37.042Z,15.23
2023-05-16T08:40:42.873Z,13.00
2023-05-16T08:43:47.207Z,11.53
2023-05-16T08:46:53.683Z,12.57
2023-05-16T08:49:59.687Z,12.30
2023-05-16T08:53:07.348Z,15.50
2023-05-16T08:56:11.770Z,16.33
2023-05-16T08:59:16.177Z,13.13
2023-05-16T09:02:24.231Z,15.00
2023-05-16T09:05:33.507Z,11.82
2023-05-16T09:08:36.806Z,10.35
2023-05-16T09:11:40.648Z,14.85
2023-05-16T09:14:50.196Z,12.70
2023-05-16T09:18:07.405Z,15.25
2023-05-16T09:21:42.422Z,12.30
2023-05-16T09:24:49.860Z,12.45
2023-05-16T09:27:54.683Z,12.80
2023-05-16T09:30:59.616Z,14.60
2023-05-16T09:34:02.922Z,15.75
2023-05-16T09:37:11.271Z,12.02
2023-05-16T09:40:22.612Z,14.45
2023-05-16T09:43:28.273Z,15.50
2023-05-16T09:46:35.270Z,15.20
2023-05-16T09:49:47.170Z,14.48
2023-05-16T09:52:54.527Z,21.27
2023-05-16T09:56:05.772Z,12.85
2023-05-16T09:59:14.384Z,12.05
2023-05-16T10:02:17.958Z,12.33
2023-05-16T10:05:21.426Z,12.35
2023-05-16T10:08:41.332Z,12.27
2023-05-16T10:11:48.094Z,13.35
2023-05-16T10:14:51.998Z,9.90
2023-05-16T10:17:58.998Z,10.67
2023-05-16T10:21:09.607Z,13.80
2023-05-16T10:24:22.806Z,11.20
2023-05-16T10:27:26.782Z,12.85
2023-05-16T10:30:30.418Z,10.00
2023-05-16T10:33:33.545Z,12.87
2023-05-16T10:36:39.867Z,11.13
2023-05-16T10:39:47.865Z,9.60
2023-05-16T10:42:57.101Z,13.07
2023-05-16T10:46:10.487Z,11.32
2023-05-16T10:49:21.975Z,13.00
2023-05-16T10:52:35.142Z,12.90
2023-05-16T10:55:41.189Z,11.10
2023-05-16T10:58:50.039Z,13.45
2023-05-16T11:02:29.456Z,11.48
2023-05-16T11:05:40.946Z,12.47
2023-05-16T11:08:59.510Z,14.02
2023-05-16T11:12:04.234Z,11.70
2023-05-16T11:15:24.862Z,11.07
2023-05-16T11:18:28.209Z,12.02
2023-05-16T11:22:04.485Z,12.73
2023-05-16T11:25:09.361Z,14.60
2023-05-16T11:28:14.875Z,12.45
2023-05-16T11:31:22.651Z,13.48
2023-05-16T11:34:27.179Z,10.80
2023-05-16T11:37:34.055Z,12.47
2023-05-16T11:40:37.356Z,11.15
2023-05-16T11:44:06.904Z,11.52
2023-05-16T11:47:16.276Z,12.85
2023-05-16T11:50:20.726Z,12.13
2023-05-16T11:53:24.541Z,15.77
2023-05-16T11:56:27.802Z,13.30
2023-05-16T11:59:59.890Z,16.30
2023-05-16T12:03:06.181Z,13.45
2023-05-16T12:06:10.200Z,17.48
2023-05-16T12:09:16.115Z,12.73
2023-05-16T12:12:22.463Z,16.17
2023-05-16T12:15:31.850Z,14.80
2023-05-16T12:18:35.404Z,18.20
2023-05-16T12:21:39.876Z,11.55
2023-05-16T12:24:45.806Z,15.73
2023-05-16T12:27:49.072Z,15.35
2023-05-16T12:30:53.771Z,13.25
2023-05-16T12:33:57.373Z,14.80
2023-05-16T12:37:14.377Z,18.38
2023-05-16T12:40:18.145Z,21.27
2023-05-16T12:43:23.933Z,15.63
2023-05-16T12:46:28.806Z,14.38
2023-05-16T12:49:34.980Z,16.65
2023-05-16T12:52:40.762Z,15.48
2023-05-16T12:55:47.174Z,16.77
2023-05-16T12:58:52.428Z,14.23
2023-05-16T13:01:57.002Z,13.77
2023-05-16T13:05:00.399Z,15.95
2023-05-16T13:08:05.779Z,14.10
2023-05-16T13:11:17.342Z,16.13
2023-05-16T13:14:20.425Z,15.68
2023-05-16T13:17:30.458Z,15.57
2023-05-16T13:20:33.642Z,14.75
2023-05-16T13:23:37.898Z,15.13
2023-05-16T13:26:44.046Z,15.17
2023-05-16T13:29:47.708Z,16.70
2023-05-16T13:32:53.311Z,14.63
2023-05-16T13:35:57.066Z,13.15
2023-05-16T13:39:00.131Z,17.42
2023-05-16T13:42:04.134Z,12.87
2023-05-16T13:45:08.233Z,14.50
2023-05-16T13:48:16.752Z,21.55
2023-05-16T13:51:20.918Z,13.30
2023-05-16T13:54:26.643Z,16.13
2023-05-16T13:57:31.862Z,17.17
2023-05-16T14:00:44.412Z,13.70
2023-05-16T14:03:50.417Z,16.05
2023-05-16T14:06:54.711Z,17.30
2023-05-16T14:09:58.030Z,15.05
2023-05-16T14:13:02.564Z,11.23
2023-05-16T14:16:07.341Z,13.45
2023-05-16T14:19:16.521Z,13.40
2023-05-16T14:22:22.904Z,15.82
2023-05-16T14:25:26.378Z,12.18
2023-05-16T14:28:30.927Z,12.37
2023-05-16T14:31:36.499Z,13.70
2023-05-16T14:34:41.219Z,22.05
2023-05-16T14:37:44.286Z,9.90
2023-05-16T14:40:47.357Z,20.15
2023-05-16T14:43:51.408Z,14.23
2023-05-16T14:46:54.531Z,17.80
2023-05-16T14:49:59.594Z,13.73
2023-05-16T14:53:03.783Z,17.27
2023-05-16T14:56:07.109Z,13.10
